createdAt,value
2019-01-29T00:01:21.425Z,7.50
2019-01-29T00:03:50.257Z,5.78
2019-01-29T00:06:19.119Z,6.05
2019-01-29T00:08:48.020Z,6.50
2019-01-29T00:11:16.870Z,5.35
2019-01-29T00:13:45.755Z,5.55
2019-01-29T00:16:14.675Z,5.58
2019-01-29T00:18:43.500Z,4.90
2019-01-29T00:21:12.413Z,4.87
2019-01-29T00:23:41.250Z,4.65
2019-01-29T00:26:10.109Z,5.22
2019-01-29T00:28:38.956Z,5.97
2019-01-29T00:31:07.872Z,4.53
2019-01-29T00:33:36.696Z,4.22
2019-01-29T00:36:05.688Z,5.05
2019-01-29T00:38:34.672Z,4.40
2019-01-29T00:41:03.529Z,4.35
2019-01-29T00:43:32.484Z,4.30
2019-01-29T00:46:01.340Z,4.67
2019-01-29T00:48:30.256Z,4.60
2019-01-29T00:50:59.229Z,4.60
2019-01-29T00:53:28.077Z,4.62
2019-01-29T00:55:56.989Z,4.15
2019-01-29T00:58:25.843Z,4.42
2019-01-29T01:00:54.665Z,4.12
2019-01-29T01:03:23.505Z,4.78
2019-01-29T01:05:52.478Z,4.83
2019-01-29T01:08:21.397Z,4.87
2019-01-29T01:10:50.252Z,4.60
2019-01-29T01:13:19.097Z,4.87
2019-01-29T01:15:48.017Z,4.45
2019-01-29T01:18:17.192Z,3.80
2019-01-29T01:20:46.184Z,4.67
2019-01-29T01:23:15.116Z,4.17
2019-01-29T01:25:44.025Z,4.58
2019-01-29T01:28:12.933Z,4.20
2019-01-29T01:30:41.769Z,4.75
2019-01-29T01:33:10.593Z,4.00
2019-01-29T01:35:39.472Z,4.25
2019-01-29T01:38:08.301Z,4.65
2019-01-29T01:40:37.213Z,4.45
2019-01-29T01:43:06.206Z,4.35
2019-01-29T01:45:35.119Z,4.42
2019-01-29T01:48:04.037Z,4.30
2019-01-29T01:50:33.022Z,4.87
2019-01-29T01:53:01.925Z,4.15
2019-01-29T01:55:30.772Z,4.15
2019-01-29T01:57:59.720Z,4.12
2019-01-29T02:00:28.645Z,4.40
2019-01-29T02:02:57.544Z,4.90
2019-01-29T02:05:26.549Z,4.83
2019-01-29T02:07:55.377Z,4.60
2019-01-29T02:10:27.032Z,4.20
2019-01-29T02:12:56.032Z,5.62
2019-01-29T02:15:25.004Z,4.22
2019-01-29T02:17:53.985Z,4.67
2019-01-29T02:20:22.972Z,4.65
2019-01-29T02:22:51.876Z,4.92
2019-01-29T02:25:20.792Z,4.15
2019-01-29T02:27:49.772Z,4.10
2019-01-29T02:30:23.295Z,4.50
2019-01-29T02:32:52.289Z,4.20
2019-01-29T02:35:21.262Z,4.53
2019-01-29T02:37:50.264Z,4.62
2019-01-29T02:40:24.497Z,4.80
2019-01-29T02:42:53.445Z,3.95
2019-01-29T02:45:23.072Z,4.20
2019-01-29T02:47:52.142Z,4.22
2019-01-29T02:50:21.213Z,4.22
2019-01-29T02:52:50.113Z,4.12
2019-01-29T02:55:19.083Z,4.20
2019-01-29T02:57:48.273Z,4.90
2019-01-29T03:00:19.521Z,4.47
2019-01-29T03:02:48.526Z,4.90
2019-01-29T03:05:17.739Z,4.25
2019-01-29T03:07:47.349Z,4.60
2019-01-29T03:10:21.845Z,3.92
2019-01-29T03:12:50.824Z,4.50
2019-01-29T03:15:24.230Z,4.45
2019-01-29T03:17:53.209Z,4.72
2019-01-29T03:20:22.292Z,4.50
2019-01-29T03:22:51.283Z,4.80
2019-01-29T03:25:21.657Z,4.33
2019-01-29T03:27:50.608Z,4.50
2019-01-29T03:30:19.739Z,4.20
2019-01-29T03:32:48.782Z,4.62
2019-01-29T03:35:17.977Z,4.03
2019-01-29T03:37:46.956Z,4.10
2019-01-29T03:40:18.783Z,4.42
2019-01-29T03:42:47.692Z,3.98
2019-01-29T03:45:17.157Z,4.15
2019-01-29T03:47:46.062Z,4.75
2019-01-29T03:50:17.136Z,4.00
2019-01-29T03:52:46.181Z,4.60
2019-01-29T03:55:15.328Z,3.87
2019-01-29T03:57:44.282Z,4.42
2019-01-29T04:00:22.280Z,4.37
2019-01-29T04:02:51.218Z,4.37
2019-01-29T04:05:20.035Z,4.40
2019-01-29T04:07:49.021Z,4.08
2019-01-29T04:10:18.573Z,4.87
2019-01-29T04:12:47.549Z,4.50
2019-01-29T04:15:17.714Z,4.60
2019-01-29T04:17:46.784Z,4.35
2019-01-29T04:20:19.914Z,4.22
2019-01-29T04:22:49.002Z,4.27
2019-01-29T04:25:18.032Z,4.50
2019-01-29T04:27:46.937Z,4.40
2019-01-29T04:30:20.259Z,4.08
2019-01-29T04:32:49.272Z,4.00
2019-01-29T04:35:18.230Z,4.45
2019-01-29T04:37:47.037Z,4.77
2019-01-29T04:40:17.788Z,4.72
2019-01-29T04:42:46.849Z,5.00
2019-01-29T04:45:16.392Z,4.67
2019-01-29T04:47:45.463Z,4.30
2019-01-29T04:50:19.163Z,4.75
2019-01-29T04:52:48.002Z,4.30
2019-01-29T04:55:16.981Z,4.67
2019-01-29T04:57:45.882Z,4.20
2019-01-29T05:00:23.363Z,4.00
2019-01-29T05:02:52.438Z,5.10
2019-01-29T05:05:21.891Z,4.77
2019-01-29T05:07:50.918Z,10.67
2019-01-29T05:10:20.020Z,12.03
2019-01-29T05:12:48.912Z,10.87
2019-01-29T05:15:18.029Z,6.30
2019-01-29T05:17:46.980Z,4.70
2019-01-29T05:20:17.969Z,5.27
2019-01-29T05:22:46.943Z,5.27
2019-01-29T05:25:15.931Z,4.43
2019-01-29T05:27:44.828Z,4.67
2019-01-29T05:30:16.495Z,4.80
2019-01-29T05:32:45.392Z,4.50
2019-01-29T05:35:14.656Z,4.90
2019-01-29T05:37:43.476Z,4.10
2019-01-29T05:40:16.772Z,4.93
2019-01-29T05:42:45.735Z,4.67
2019-01-29T05:45:16.213Z,4.73
2019-01-29T05:47:45.086Z,4.63
2019-01-29T05:50:14.393Z,4.07
2019-01-29T05:52:43.382Z,4.50
2019-01-29T05:55:12.611Z,4.30
2019-01-29T05:57:41.575Z,4.90
2019-01-29T06:00:17.227Z,5.40
2019-01-29T06:02:48.251Z,4.60
2019-01-29T06:05:17.216Z,4.33
2019-01-29T06:07:46.117Z,4.53
2019-01-29T06:10:15.207Z,4.70
2019-01-29T06:12:44.089Z,4.17
2019-01-29T06:15:15.096Z,4.43
2019-01-29T06:17:43.911Z,4.37
2019-01-29T06:20:15.420Z,4.60
2019-01-29T06:22:44.389Z,4.43
2019-01-29T06:25:13.442Z,4.53
2019-01-29T06:27:42.489Z,4.10
2019-01-29T06:30:12.417Z,4.47
2019-01-29T06:32:41.385Z,4.47
2019-01-29T06:35:12.361Z,4.17
2019-01-29T06:37:41.333Z,4.00
2019-01-29T06:40:11.692Z,4.17
2019-01-29T06:42:40.680Z,3.80
2019-01-29T06:45:12.016Z,4.00
2019-01-29T06:47:40.987Z,4.57
2019-01-29T06:50:12.248Z,4.27
2019-01-29T06:52:41.161Z,4.17
2019-01-29T06:55:12.084Z,4.87
2019-01-29T06:57:40.984Z,7.17
2019-01-29T07:00:13.369Z,8.83
2019-01-29T07:02:42.400Z,8.53
2019-01-29T07:05:11.476Z,8.33
2019-01-29T07:07:40.363Z,6.13
2019-01-29T07:10:10.381Z,4.47
2019-01-29T07:12:39.191Z,4.37
2019-01-29T07:15:12.260Z,4.10
2019-01-29T07:17:45.069Z,4.40
2019-01-29T07:20:14.020Z,3.57
2019-01-29T07:22:43.001Z,4.23
2019-01-29T07:25:12.254Z,3.80
2019-01-29T07:27:41.153Z,4.17
2019-01-29T07:30:13.031Z,4.43
2019-01-29T07:32:41.948Z,4.50
2019-01-29T07:35:10.835Z,4.93
2019-01-29T07:37:39.721Z,4.00
2019-01-29T07:40:09.184Z,4.20
2019-01-29T07:42:38.039Z,3.73
2019-01-29T07:45:07.493Z,4.33
2019-01-29T07:47:36.393Z,3.83
2019-01-29T07:50:06.009Z,4.00
2019-01-29T07:52:35.184Z,3.97
2019-01-29T07:55:04.444Z,3.90
2019-01-29T07:57:33.262Z,3.70
2019-01-29T08:00:02.236Z,4.37
2019-01-29T08:02:31.075Z,4.40
2019-01-29T08:04:59.916Z,3.70
2019-01-29T08:07:28.799Z,3.50
2019-01-29T08:09:57.656Z,4.37
2019-01-29T08:12:26.506Z,4.50
2019-01-29T08:14:55.481Z,5.13
2019-01-29T08:17:24.448Z,5.40
2019-01-29T08:19:53.347Z,4.63
2019-01-29T08:22:22.247Z,4.63
2019-01-29T08:24:52.080Z,4.03
2019-01-29T08:27:21.604Z,4.17
2019-01-29T08:29:50.416Z,3.90
2019-01-29T08:32:19.317Z,3.83
2019-01-29T08:34:48.210Z,3.97
2019-01-29T08:37:17.044Z,3.67
2019-01-29T08:39:46.104Z,3.90
2019-01-29T08:42:15.085Z,3.80
2019-01-29T08:44:43.908Z,3.23
2019-01-29T08:47:12.822Z,3.70
2019-01-29T08:49:41.708Z,3.40
2019-01-29T08:52:11.699Z,4.20
2019-01-29T08:54:40.689Z,3.93
2019-01-29T08:57:09.511Z,4.20
2019-01-29T08:59:38.391Z,3.67
2019-01-29T09:02:08.264Z,3.80
2019-01-29T09:04:37.360Z,3.27
2019-01-29T09:07:06.277Z,3.10
2019-01-29T09:09:35.172Z,2.93
2019-01-29T09:12:04.162Z,3.07
2019-01-29T09:14:33.040Z,3.30
2019-01-29T09:17:01.946Z,2.80
2019-01-29T09:19:30.833Z,2.90
2019-01-29T09:21:59.660Z,2.70
2019-01-29T09:24:28.464Z,2.23
2019-01-29T09:26:57.288Z,2.00
2019-01-29T09:29:26.196Z,2.03
2019-01-29T09:31:55.155Z,2.07
2019-01-29T09:34:24.137Z,1.97
2019-01-29T09:36:53.021Z,2.20
2019-01-29T09:39:21.849Z,2.40
2019-01-29T09:41:50.736Z,2.43
2019-01-29T09:44:19.592Z,2.50
2019-01-29T09:46:48.412Z,2.80
2019-01-29T09:49:17.244Z,2.50
2019-01-29T09:51:46.136Z,2.57
2019-01-29T09:54:15.132Z,2.47
2019-01-29T09:56:43.948Z,2.90
2019-01-29T09:59:12.784Z,2.77
2019-01-29T10:01:41.667Z,2.60
2019-01-29T10:04:10.498Z,2.87
2019-01-29T10:06:39.305Z,2.90
2019-01-29T10:09:08.910Z,3.00
2019-01-29T10:11:37.745Z,3.10
2019-01-29T10:14:06.926Z,2.90
2019-01-29T10:16:35.829Z,3.13
2019-01-29T10:19:04.789Z,3.10
2019-01-29T10:21:33.628Z,2.73
2019-01-29T10:24:02.451Z,2.67
2019-01-29T10:26:31.351Z,2.50
2019-01-29T10:29:00.239Z,3.00
2019-01-29T10:31:29.077Z,3.10
2019-01-29T10:33:57.961Z,3.00
2019-01-29T10:36:26.946Z,2.63
2019-01-29T10:38:55.861Z,2.63
2019-01-29T10:41:24.664Z,2.77
2019-01-29T10:43:53.575Z,2.90
2019-01-29T10:46:22.392Z,2.50
2019-01-29T10:48:51.376Z,2.60
2019-01-29T10:51:20.268Z,2.60
2019-01-29T10:53:49.190Z,2.23
2019-01-29T10:56:18.025Z,2.40
2019-01-29T10:58:46.879Z,2.30
2019-01-29T11:01:15.884Z,2.60
2019-01-29T11:03:44.857Z,2.50
2019-01-29T11:06:13.821Z,2.43
2019-01-29T11:08:42.632Z,2.60
2019-01-29T11:11:11.533Z,2.27
2019-01-29T11:13:40.518Z,2.50
2019-01-29T11:16:09.423Z,2.40
2019-01-29T11:18:38.384Z,2.03
2019-01-29T11:21:07.373Z,2.00
2019-01-29T11:23:36.252Z,2.10
2019-01-29T11:26:05.765Z,2.00
2019-01-29T11:28:34.652Z,2.20
2019-01-29T11:31:03.844Z,1.93
2019-01-29T11:33:32.739Z,2.17
2019-01-29T11:36:01.695Z,2.23
2019-01-29T11:38:30.516Z,2.17
2019-01-29T11:40:59.501Z,2.37
2019-01-29T11:43:28.308Z,3.23
2019-01-29T11:45:57.484Z,2.33
2019-01-29T11:48:26.386Z,3.67
2019-01-29T11:50:55.288Z,5.93
2019-01-29T11:53:24.181Z,6.80
2019-01-29T11:55:53.079Z,2.20
2019-01-29T11:58:21.985Z,2.20
2019-01-29T12:01:19.083Z,2.13
2019-01-29T12:03:47.917Z,2.53
2019-01-29T12:06:16.801Z,2.10
2019-01-29T12:08:45.700Z,2.30
2019-01-29T12:11:14.586Z,2.63
2019-01-29T12:13:43.484Z,2.37
2019-01-29T12:16:12.380Z,2.47
2019-01-29T12:18:41.204Z,2.10
2019-01-29T12:21:10.084Z,2.23
2019-01-29T12:23:38.993Z,2.30
2019-01-29T12:26:12.999Z,2.40
2019-01-29T12:28:38.500Z,2.50
2019-01-29T12:31:07.399Z,2.30
2019-01-29T12:33:36.342Z,2.00
2019-01-29T12:36:05.449Z,1.90
2019-01-29T12:38:34.413Z,1.80
2019-01-29T12:41:03.401Z,1.90
2019-01-29T12:43:32.204Z,1.83
2019-01-29T12:46:01.199Z,1.97
2019-01-29T12:48:30.180Z,2.20
2019-01-29T12:51:00.423Z,2.20
2019-01-29T12:53:32.756Z,2.07
2019-01-29T12:56:01.588Z,2.33
2019-01-29T12:58:30.401Z,1.80
2019-01-29T13:01:00.452Z,2.13
2019-01-29T13:03:29.345Z,2.33
2019-01-29T13:05:58.234Z,2.13
2019-01-29T13:08:27.224Z,2.13
2019-01-29T13:10:56.176Z,2.30
2019-01-29T13:13:25.160Z,1.90
2019-01-29T13:15:54.041Z,1.73
2019-01-29T13:18:22.925Z,1.80
2019-01-29T13:20:51.834Z,1.70
2019-01-29T13:23:20.731Z,1.73
2019-01-29T13:25:49.575Z,2.30
2019-01-29T13:28:18.538Z,2.93
2019-01-29T13:30:47.513Z,2.83
2019-01-29T13:33:16.736Z,2.67
2019-01-29T13:35:45.705Z,2.63
2019-01-29T13:38:14.891Z,2.03
2019-01-29T13:40:43.786Z,2.90
2019-01-29T13:43:12.759Z,2.30
2019-01-29T13:45:41.836Z,2.70
2019-01-29T13:48:10.976Z,2.03
2019-01-29T13:50:47.540Z,2.10
2019-01-29T13:53:16.349Z,2.10
2019-01-29T13:55:45.275Z,1.87
2019-01-29T13:58:14.461Z,1.50
2019-01-29T14:00:43.462Z,1.60
2019-01-29T14:03:13.008Z,1.90
2019-01-29T14:05:41.891Z,1.97
2019-01-29T14:08:10.869Z,1.90
2019-01-29T14:10:39.760Z,2.50
2019-01-29T14:13:08.582Z,4.20
2019-01-29T14:16:02.672Z,2.07
2019-01-29T14:18:32.596Z,1.93
2019-01-29T14:21:01.847Z,1.90
2019-01-29T14:23:30.812Z,2.03
2019-01-29T14:25:59.756Z,2.20
2019-01-29T14:28:28.785Z,5.50
2019-01-29T14:30:57.759Z,3.97
2019-01-29T14:33:26.820Z,2.73
2019-01-29T14:35:55.792Z,1.90
2019-01-29T14:39:12.035Z,2.80
2019-01-29T14:41:41.037Z,1.87
2019-01-29T14:44:22.249Z,2.00
2019-01-29T14:46:51.061Z,2.40
2019-01-29T14:49:20.051Z,2.70
2019-01-29T14:51:48.955Z,2.70
2019-01-29T14:54:17.779Z,2.10
2019-01-29T14:56:46.607Z,2.00
2019-01-29T14:59:15.488Z,2.53
2019-01-29T15:01:44.561Z,2.00
2019-01-29T15:04:13.381Z,2.70
2019-01-29T15:06:42.432Z,7.27
2019-01-29T15:09:12.698Z,3.30
2019-01-29T15:11:41.596Z,4.43
2019-01-29T15:14:10.561Z,7.87
2019-01-29T15:16:53.604Z,2.60
2019-01-29T15:19:25.053Z,1.90
2019-01-29T15:21:54.039Z,2.50
2019-01-29T15:24:22.915Z,1.90
2019-01-29T15:26:51.731Z,1.67
2019-01-29T15:29:20.708Z,1.97
2019-01-29T15:31:49.603Z,2.60
2019-01-29T15:34:18.416Z,2.23
2019-01-29T15:36:47.233Z,2.50
2019-01-29T15:39:16.064Z,2.70
2019-01-29T15:41:44.956Z,2.77
2019-01-29T15:44:13.878Z,1.77
2019-01-29T15:46:42.837Z,2.50
2019-01-29T15:49:11.731Z,4.27
2019-01-29T15:51:40.674Z,4.23
2019-01-29T15:54:09.664Z,4.27
2019-01-29T15:56:38.589Z,4.60
2019-01-29T15:59:07.538Z,3.63
2019-01-29T16:01:36.484Z,3.90
2019-01-29T16:04:05.661Z,2.40
2019-01-29T16:06:34.648Z,3.27
2019-01-29T16:09:05.788Z,4.10
2019-01-29T16:11:34.700Z,3.90
2019-01-29T16:14:03.613Z,3.20
2019-01-29T16:16:32.628Z,3.83
2019-01-29T16:19:03.452Z,3.87
2019-01-29T16:21:32.371Z,3.77
2019-01-29T16:24:01.287Z,3.80
2019-01-29T16:26:30.191Z,4.10
2019-01-29T16:28:59.029Z,4.47
2019-01-29T16:31:27.985Z,4.23
2019-01-29T16:33:57.065Z,4.67
2019-01-29T16:36:26.050Z,4.90
2019-01-29T16:38:54.892Z,4.22
2019-01-29T16:41:23.868Z,4.45
2019-01-29T16:43:52.959Z,4.67
2019-01-29T16:46:21.976Z,5.22
2019-01-29T16:48:50.871Z,4.80
2019-01-29T16:51:19.782Z,4.65
2019-01-29T16:53:48.634Z,5.53
2019-01-29T16:56:17.548Z,4.90
2019-01-29T16:58:47.238Z,5.50
2019-01-29T17:01:16.276Z,6.90
2019-01-29T17:03:45.144Z,5.70
2019-01-29T17:06:25.451Z,5.55
2019-01-29T17:08:55.263Z,5.40
2019-01-29T17:11:25.576Z,6.03
2019-01-29T17:13:54.465Z,6.45
2019-01-29T17:16:24.566Z,5.85
2019-01-29T17:18:54.016Z,9.75
2019-01-29T17:21:23.046Z,6.40
2019-01-29T17:23:51.949Z,6.12
2019-01-29T17:26:20.882Z,7.42
2019-01-29T17:28:49.714Z,6.45
2019-01-29T17:31:18.542Z,5.90
2019-01-29T17:33:47.436Z,7.10
2019-01-29T17:36:16.304Z,5.83
2019-01-29T17:38:45.144Z,6.87
2019-01-29T17:41:14.048Z,6.90
2019-01-29T17:43:42.977Z,8.68
2019-01-29T17:46:11.960Z,6.08
2019-01-29T17:48:40.780Z,5.72
2019-01-29T17:51:09.791Z,6.00
2019-01-29T17:53:38.688Z,6.85
2019-01-29T17:56:07.588Z,6.12
2019-01-29T17:58:36.429Z,6.05
2019-01-29T18:01:05.503Z,6.05
2019-01-29T18:03:34.441Z,5.50
2019-01-29T18:06:03.445Z,5.40
2019-01-29T18:08:34.757Z,7.83
2019-01-29T18:11:03.762Z,7.55
2019-01-29T18:13:32.728Z,6.40
2019-01-29T18:16:01.651Z,5.12
2019-01-29T18:18:30.685Z,6.50
2019-01-29T18:20:59.540Z,6.45
2019-01-29T18:23:28.351Z,7.67
2019-01-29T18:25:57.333Z,7.22
2019-01-29T18:28:26.340Z,5.08
2019-01-29T18:30:55.176Z,5.30
2019-01-29T18:33:24.097Z,7.67
2019-01-29T18:35:52.996Z,5.08
2019-01-29T18:38:21.852Z,6.35
2019-01-29T18:40:53.569Z,4.83
2019-01-29T18:43:22.476Z,4.15
2019-01-29T18:45:51.487Z,4.90
2019-01-29T18:48:20.421Z,8.88
2019-01-29T18:50:49.316Z,5.97
2019-01-29T18:53:18.249Z,5.30
2019-01-29T18:55:47.161Z,4.45
2019-01-29T18:58:16.093Z,6.00
2019-01-29T19:00:54.008Z,5.95
2019-01-29T19:03:15.905Z,4.67
2019-01-29T19:05:44.873Z,4.90
2019-01-29T19:08:13.837Z,5.83
2019-01-29T19:10:42.800Z,5.08
2019-01-29T19:13:11.789Z,4.40
2019-01-29T19:15:40.685Z,4.65
2019-01-29T19:18:09.676Z,4.45
2019-01-29T19:20:38.580Z,4.67
2019-01-29T19:23:07.496Z,4.55
2019-01-29T19:25:36.501Z,4.72
2019-01-29T19:28:05.533Z,4.55
2019-01-29T19:30:34.460Z,5.58
2019-01-29T19:33:03.420Z,4.30
2019-01-29T19:35:32.581Z,4.20
2019-01-29T19:38:01.891Z,5.10
2019-01-29T19:40:31.456Z,5.03
2019-01-29T19:43:00.942Z,4.92
2019-01-29T19:45:32.896Z,5.78
2019-01-29T19:48:03.295Z,4.87
2019-01-29T19:50:36.189Z,5.10
2019-01-29T19:53:06.168Z,4.92
2019-01-29T19:55:36.054Z,4.85
2019-01-29T19:58:09.269Z,5.33
2019-01-29T20:00:41.361Z,5.45
2019-01-29T20:03:11.382Z,4.92
2019-01-29T20:05:41.241Z,5.00
2019-01-29T20:08:11.152Z,5.70
2019-01-29T20:10:41.151Z,6.25
2019-01-29T20:13:11.035Z,6.60
2019-01-29T20:15:40.882Z,5.65
2019-01-29T20:18:11.158Z,4.95
2019-01-29T20:20:42.462Z,5.62
2019-01-29T20:23:12.403Z,5.05
2019-01-29T20:25:42.224Z,5.10
2019-01-29T20:28:12.226Z,5.33
2019-01-29T20:30:43.331Z,5.33
2019-01-29T20:33:13.177Z,5.58
2019-01-29T20:35:43.118Z,5.15
2019-01-29T20:38:12.967Z,5.83
2019-01-29T20:40:42.853Z,5.35
2019-01-29T20:43:12.840Z,5.87
2019-01-29T20:45:42.731Z,5.33
2019-01-29T20:48:12.578Z,5.72
2019-01-29T20:50:42.485Z,7.10
2019-01-29T20:53:12.266Z,5.85
2019-01-29T20:55:42.107Z,5.78
2019-01-29T20:58:11.995Z,5.50
2019-01-29T21:00:42.216Z,5.00
2019-01-29T21:03:12.081Z,5.03
2019-01-29T21:05:42.073Z,5.70
2019-01-29T21:08:11.881Z,5.72
2019-01-29T21:10:41.417Z,5.20
2019-01-29T21:13:11.082Z,5.85
2019-01-29T21:15:40.466Z,5.37
2019-01-29T21:18:09.643Z,5.65
2019-01-29T21:20:38.626Z,6.00
2019-01-29T21:23:07.457Z,6.20
2019-01-29T21:25:36.279Z,5.15
2019-01-29T21:28:05.579Z,5.53
2019-01-29T21:30:36.859Z,4.90
2019-01-29T21:33:05.918Z,5.58
2019-01-29T21:35:34.846Z,5.22
2019-01-29T21:38:04.129Z,5.45
2019-01-29T21:40:33.116Z,5.33
2019-01-29T21:43:02.100Z,5.65
2019-01-29T21:45:31.111Z,6.37
2019-01-29T21:48:01.361Z,5.58
2019-01-29T21:50:31.325Z,5.42
2019-01-29T21:53:00.300Z,5.42
2019-01-29T21:55:29.321Z,5.60
2019-01-29T21:57:58.600Z,5.92
2019-01-29T22:00:37.714Z,5.80
2019-01-29T22:03:07.464Z,6.22
2019-01-29T22:05:36.496Z,5.80
2019-01-29T22:08:06.484Z,6.58
2019-01-29T22:10:36.865Z,6.15
2019-01-29T22:13:07.648Z,6.72
2019-01-29T22:15:36.607Z,7.45
2019-01-29T22:18:06.775Z,6.58
2019-01-29T22:20:37.095Z,6.40
2019-01-29T22:23:06.168Z,6.53
2019-01-29T22:25:35.885Z,6.12
2019-01-29T22:28:07.095Z,6.25
2019-01-29T22:30:37.068Z,6.08
2019-01-29T22:33:06.897Z,5.87
2019-01-29T22:35:35.794Z,6.55
2019-01-29T22:38:05.048Z,5.83
2019-01-29T22:40:35.032Z,6.03
2019-01-29T22:43:04.452Z,6.42
2019-01-29T22:45:33.368Z,6.40
2019-01-29T22:48:04.496Z,6.00
2019-01-29T22:50:35.075Z,6.20
2019-01-29T22:53:04.259Z,6.87
2019-01-29T22:55:33.219Z,6.53
2019-01-29T22:58:02.191Z,6.75
2019-01-29T23:01:01.135Z,6.80
2019-01-29T23:03:54.431Z,6.75
2019-01-29T23:06:41.339Z,6.37
2019-01-29T23:09:11.313Z,6.90
2019-01-29T23:11:40.393Z,7.20
2019-01-29T23:14:10.763Z,7.55
2019-01-29T23:16:39.734Z,9.25
2019-01-29T23:19:08.758Z,7.37
2019-01-29T23:21:37.670Z,7.70
2019-01-29T23:24:06.861Z,8.25
2019-01-29T23:26:36.630Z,7.55
2019-01-29T23:29:05.712Z,8.20
2019-01-29T23:31:34.636Z,8.10
2019-01-29T23:34:03.532Z,7.85
2019-01-29T23:36:32.519Z,7.70
2019-01-29T23:39:01.340Z,8.05
2019-01-29T23:41:30.288Z,8.20
2019-01-29T23:43:59.112Z,7.58
2019-01-29T23:46:27.932Z,7.55
2019-01-29T23:48:56.751Z,7.37
2019-01-29T23:51:25.577Z,7.45
2019-01-29T23:53:54.399Z,7.80
2019-01-29T23:56:23.236Z,7.30
2019-01-29T23:58:52.238Z,6.45
